Time;durP1;ratioP1;P1;durP2;ratioP2;P2;SDS_P1;SDS_P2;PMS_P1;PMS_P2;Temp;Humidity;BMP_temperature;BMP_pressure;BME280_temperature;BME280_humidity;BME280_pressure;Samples;Min_cycle;Max_cycle;Signal;HPM_P1;HPM_P2
2021/05/09 00:01:02;;;;;;;3.03;2.83;;;12.40;98.90;;;;;;5076195;28;20437;-80
2021/05/09 00:03:48;;;;;;;2.50;1.87;;;12.50;98.80;;;;;;5079456;28;20455;-79
2021/05/09 00:10:27;;;;;;;2.27;2.07;;;12.50;98.80;;;;;;5077678;28;20478;-79
2021/05/09 00:13:41;;;;;;;;;;;;;;;;;;;;;
2021/05/09 00:16:55;;;;;;;2.57;2.43;;;12.50;99.00;;;;;;5074179;28;20532;-79
2021/05/09 00:19:44;;;;;;;3.10;2.90;;;12.40;99.20;;;;;;5077916;28;20490;-79
2021/05/09 00:28:37;;;;;;;2.33;2.23;;;12.20;99.60;;;;;;5079149;28;20449;-80
2021/05/09 00:32:04;;;;;;;2.97;2.77;;;12.10;99.90;;;;;;5072859;28;20466;-80
2021/05/09 00:35:07;;;;;;;;;;;;;;;;;;;;;
2021/05/09 00:38:04;;;;;;;3.63;2.17;;;12.00;99.90;;;;;;5072670;28;20544;-80
2021/05/09 00:46:48;;;;;;;3.50;3.20;;;11.90;99.90;;;;;;5051438;28;20458;-80
2021/05/09 00:49:15;;;;;;;3.60;2.80;;;11.80;99.90;;;;;;5078932;28;20481;-79
2021/05/09 00:51:44;;;;;;;2.53;2.33;;;11.80;99.90;;;;;;5077658;28;20563;-79
2021/05/09 00:54:12;;;;;;;2.30;2.07;;;11.80;99.90;;;;;;5078449;28;20544;-79
2021/05/09 00:56:39;;;;;;;2.40;2.10;;;11.80;99.90;;;;;;5078007;28;20463;-80
2021/05/09 00:59:06;;;;;;;3.00;2.80;;;11.80;99.90;;;;;;5077861;28;20490;-79
2021/05/09 01:01:36;;;;;;;2.33;2.23;;;11.80;99.90;;;;;;5077889;28;20935;-79
2021/05/09 01:04:03;;;;;;;2.43;2.33;;;11.70;99.90;;;;;;5078386;28;20459;-79
2021/05/09 01:06:33;;;;;;;1.93;1.77;;;11.70;99.90;;;;;;5078091;28;20454;-79
2021/05/09 01:09:03;;;;;;;3.20;2.73;;;11.70;99.90;;;;;;5077963;28;20467;-79
2021/05/09 01:11:29;;;;;;;2.73;2.53;;;11.70;99.90;;;;;;5077996;28;20449;-79
2021/05/09 01:13:55;;;;;;;2.63;2.43;;;11.60;99.90;;;;;;5077410;28;20457;-79
2021/05/09 01:16:22;;;;;;;2.27;2.10;;;11.60;99.90;;;;;;5078439;28;20458;-79
2021/05/09 01:18:48;;;;;;;2.93;2.60;;;11.60;99.90;;;;;;5077493;28;20498;-79
2021/05/09 01:21:15;;;;;;;3.43;2.70;;;11.60;99.90;;;;;;5078107;28;20487;-78
2021/05/09 01:23:41;;;;;;;3.83;3.07;;;11.60;99.90;;;;;;5079810;28;20443;-77
2021/05/09 01:26:07;;;;;;;3.03;2.73;;;11.60;99.90;;;;;;5080441;28;20457;-77
2021/05/09 01:28:33;;;;;;;3.47;2.73;;;11.50;99.90;;;;;;5080292;28;20450;-77
2021/05/09 01:31:00;;;;;;;2.37;2.27;;;11.50;99.90;;;;;;5079694;28;20464;-79
2021/05/09 01:33:26;;;;;;;2.70;2.50;;;11.50;99.90;;;;;;5077473;28;20503;-79
2021/05/09 01:35:54;;;;;;;2.37;2.17;;;11.50;99.90;;;;;;5077022;28;20446;-79
2021/05/09 01:38:21;;;;;;;2.40;2.30;;;11.50;99.90;;;;;;5077281;28;20517;-79
2021/05/09 01:40:47;;;;;;;2.60;2.50;;;11.40;99.90;;;;;;5074870;28;20473;-79
2021/05/09 01:43:13;;;;;;;3.20;2.67;;;11.40;99.90;;;;;;5073300;28;20461;-79
2021/05/09 01:45:40;;;;;;;3.73;3.30;;;11.40;99.90;;;;;;5076320;28;20477;-79
2021/05/09 01:48:06;;;;;;;3.37;3.10;;;11.40;99.90;;;;;;5077851;28;20460;-79
2021/05/09 01:50:33;;;;;;;3.77;3.50;;;11.40;99.90;;;;;;5076855;28;20485;-79
2021/05/09 01:53:00;;;;;;;4.47;4.07;;;11.40;99.90;;;;;;5077636;28;20509;-79
2021/05/09 01:55:28;;;;;;;4.30;3.90;;;11.40;99.90;;;;;;5077669;28;20454;-79
2021/05/09 01:57:54;;;;;;;4.37;4.07;;;11.40;99.90;;;;;;5077424;28;20450;-79
2021/05/09 02:00:21;;;;;;;4.33;4.03;;;11.40;99.90;;;;;;5076705;28;20503;-79
2021/05/09 02:02:48;;;;;;;4.43;4.13;;;11.40;99.90;;;;;;5076899;28;20472;-78
2021/05/09 02:05:15;;;;;;;5.80;4.40;;;11.40;99.90;;;;;;5080664;28;20456;-77
2021/05/09 02:07:42;;;;;;;5.10;4.70;;;11.40;99.90;;;;;;5079478;28;20461;-78
2021/05/09 02:10:09;;;;;;;5.37;4.87;;;11.40;99.90;;;;;;5076918;28;20978;-79
2021/05/09 02:12:37;;;;;;;5.30;4.90;;;11.40;99.90;;;;;;5076784;28;20457;-79
2021/05/09 02:15:04;;;;;;;6.00;5.40;;;11.40;99.90;;;;;;5076706;28;20434;-78
2021/05/09 02:17:30;;;;;;;7.80;5.43;;;11.40;99.90;;;;;;5077413;28;20461;-78
2021/05/09 02:19:57;;;;;;;4.67;4.23;;;11.40;99.90;;;;;;5076740;28;21187;-79
2021/05/09 02:22:23;;;;;;;4.73;4.37;;;11.40;99.90;;;;;;5076766;28;20461;-79
2021/05/09 02:24:49;;;;;;;5.30;4.83;;;11.30;99.90;;;;;;5077107;28;20456;-79
2021/05/09 02:27:15;;;;;;;4.87;4.17;;;11.30;99.90;;;;;;5076697;28;20457;-79
2021/05/09 02:29:42;;;;;;;4.20;3.80;;;11.30;99.90;;;;;;5074442;28;20870;-79
2021/05/09 02:32:08;;;;;;;4.23;3.93;;;11.30;99.90;;;;;;5073655;28;20450;-79
2021/05/09 02:34:36;;;;;;;5.07;4.67;;;11.30;99.90;;;;;;5073819;28;20862;-79
2021/05/09 02:37:05;;;;;;;4.88;4.57;;;11.30;99.90;;;;;;5074033;28;20461;-79
2021/05/09 02:39:32;;;;;;;4.67;4.27;;;11.30;99.90;;;;;;5072649;28;20273;-79
2021/05/09 02:41:58;;;;;;;3.60;3.33;;;11.30;99.90;;;;;;5073150;28;20820;-78
2021/05/09 02:44:25;;;;;;;5.47;3.57;;;11.20;99.90;;;;;;5074170;28;20870;-79
2021/05/09 02:46:52;;;;;;;3.83;3.53;;;11.20;99.90;;;;;;5073817;28;20470;-80
2021/05/09 02:49:18;;;;;;;5.07;3.60;;;11.20;99.90;;;;;;5073826;28;20474;-79
2021/05/09 02:51:44;;;;;;;3.57;3.27;;;11.20;99.90;;;;;;5074710;28;20511;-79
2021/05/09 02:54:10;;;;;;;4.13;3.80;;;11.20;99.90;;;;;;5076910;28;20951;-79
2021/05/09 02:56:36;;;;;;;3.97;3.13;;;11.20;99.90;;;;;;5077771;28;20453;-78
2021/05/09 02:59:03;;;;;;;4.10;3.70;;;11.20;99.90;;;;;;5076307;28;20494;-79
2021/05/09 03:01:30;;;;;;;3.93;3.63;;;11.20;99.90;;;;;;5076104;28;20449;-79
2021/05/09 03:03:57;;;;;;;4.37;3.83;;;11.20;99.90;;;;;;5076130;28;20502;-78
2021/05/09 03:06:23;;;;;;;4.37;3.80;;;11.20;99.90;;;;;;5076210;28;20943;-78
2021/05/09 03:08:49;;;;;;;4.00;3.70;;;11.20;99.90;;;;;;5076068;28;20468;-78
2021/05/09 03:11:15;;;;;;;4.30;3.90;;;11.20;99.90;;;;;;5076365;28;20508;-79
2021/05/09 03:13:41;;;;;;;4.70;3.57;;;11.30;99.90;;;;;;5075812;28;20506;-78
2021/05/09 03:16:08;;;;;;;5.90;5.27;;;11.20;99.90;;;;;;5076008;28;20450;-78
2021/05/09 03:18:34;;;;;;;4.50;4.20;;;11.30;99.90;;;;;;5076415;28;20490;-79
2021/05/09 03:21:01;;;;;;;5.30;4.80;;;11.30;99.90;;;;;;5075675;28;20460;-79
2021/05/09 03:23:28;;;;;;;6.00;5.50;;;11.30;99.90;;;;;;5077615;28;20453;-79
2021/05/09 03:25:54;;;;;;;4.67;4.27;;;11.20;99.90;;;;;;5079683;28;20821;-79
2021/05/09 03:28:20;;;;;;;5.37;4.83;;;11.30;99.90;;;;;;5079170;28;20453;-79
2021/05/09 03:30:47;;;;;;;4.60;4.30;;;11.20;99.90;;;;;;5079743;28;20469;-78
2021/05/09 03:33:13;;;;;;;4.87;4.47;;;11.20;99.90;;;;;;5079211;28;20458;-79
2021/05/09 03:35:39;;;;;;;4.93;4.43;;;11.20;99.90;;;;;;5079706;28;20863;-79
2021/05/09 03:38:06;;;;;;;4.50;4.20;;;11.20;99.90;;;;;;5079277;28;20458;-79
2021/05/09 03:40:33;;;;;;;3.93;3.70;;;11.20;99.90;;;;;;5079873;28;20492;-79
2021/05/09 03:42:59;;;;;;;4.80;4.50;;;11.20;99.90;;;;;;5075868;28;20829;-78
2021/05/09 03:45:25;;;;;;;4.37;4.00;;;11.20;99.90;;;;;;5076146;28;20574;-78
2021/05/09 03:47:52;;;;;;;4.70;4.30;;;11.20;99.90;;;;;;5076046;28;20461;-79
2021/05/09 03:50:18;;;;;;;4.20;3.80;;;11.20;99.90;;;;;;5076060;28;20469;-79
2021/05/09 03:52:44;;;;;;;4.23;3.87;;;11.10;99.90;;;;;;5077727;28;20483;-79
2021/05/09 03:55:12;;;;;;;3.50;3.17;;;11.10;99.90;;;;;;5078985;28;20454;-79
2021/05/09 03:57:38;;;;;;;3.80;3.50;;;11.10;99.90;;;;;;5079521;28;20454;-78
2021/05/09 04:00:06;;;;;;;5.30;3.90;;;11.10;99.90;;;;;;5079007;28;20500;-79
2021/05/09 04:02:32;;;;;;;5.83;3.93;;;11.10;99.90;;;;;;5078922;28;20454;-79
2021/05/09 04:04:58;;;;;;;3.53;3.23;;;11.10;99.90;;;;;;5079073;28;20458;-79
2021/05/09 04:07:24;;;;;;;4.30;4.00;;;11.10;99.90;;;;;;5078413;28;20456;-79
2021/05/09 04:09:50;;;;;;;3.27;2.97;;;11.10;99.90;;;;;;5078680;28;20994;-79
2021/05/09 04:12:17;;;;;;;4.80;4.40;;;11.10;99.90;;;;;;5078195;28;20460;-79
2021/05/09 04:14:44;;;;;;;5.27;3.57;;;11.10;99.90;;;;;;5078295;28;20453;-78
2021/05/09 04:17:10;;;;;;;3.50;3.30;;;11.10;99.90;;;;;;5077983;28;20450;-79
2021/05/09 04:19:36;;;;;;;3.90;3.60;;;11.20;99.90;;;;;;5078253;28;20530;-79
2021/05/09 04:22:03;;;;;;;3.50;3.20;;;11.20;99.90;;;;;;5078400;28;20448;-79
2021/05/09 04:24:29;;;;;;;3.60;3.30;;;11.20;99.90;;;;;;5079002;28;20450;-79
2021/05/09 04:26:55;;;;;;;3.63;3.10;;;11.30;99.90;;;;;;5078372;28;20458;-79
2021/05/09 04:29:22;;;;;;;3.90;3.57;;;11.30;99.90;;;;;;5077808;28;20467;-79
2021/05/09 04:31:48;;;;;;;4.30;3.20;;;11.30;99.90;;;;;;5078033;28;20450;-77
2021/05/09 04:34:15;;;;;;;4.33;4.03;;;11.40;99.90;;;;;;5082175;28;20824;-78
2021/05/09 04:36:41;;;;;;;3.83;3.63;;;11.40;99.90;;;;;;5078168;28;20451;-79
2021/05/09 04:39:08;;;;;;;3.90;3.60;;;11.50;99.90;;;;;;5078648;28;20528;-79
2021/05/09 04:41:34;;;;;;;3.60;3.40;;;11.50;99.90;;;;;;5077888;28;20463;-79
2021/05/09 04:44:00;;;;;;;3.10;2.90;;;11.60;99.90;;;;;;5078122;28;20940;-79
2021/05/09 04:46:27;;;;;;;3.93;3.63;;;11.70;99.90;;;;;;5078564;28;20503;-78
2021/05/09 04:48:53;;;;;;;3.90;3.60;;;11.70;99.90;;;;;;5078146;28;21113;-78
2021/05/09 04:51:20;;;;;;;4.23;3.93;;;11.70;99.90;;;;;;5078317;28;20446;-78
2021/05/09 04:53:46;;;;;;;4.53;4.23;;;11.70;99.90;;;;;;5078477;28;20568;-78
2021/05/09 04:56:12;;;;;;;4.27;3.87;;;11.70;99.90;;;;;;5078764;28;20510;-79
2021/05/09 04:58:40;;;;;;;4.17;3.80;;;11.70;99.90;;;;;;5076622;28;20856;-78
2021/05/09 05:01:08;;;;;;;4.87;4.50;;;11.70;99.90;;;;;;5077363;28;20824;-78
2021/05/09 05:03:36;;;;;;;4.00;3.80;;;11.70;99.90;;;;;;5076667;28;20507;-79
2021/05/09 05:06:03;;;;;;;3.83;3.63;;;11.70;99.90;;;;;;5077343;28;20458;-78
2021/05/09 05:08:31;;;;;;;4.60;4.20;;;11.70;99.90;;;;;;5076466;28;20443;-78
2021/05/09 05:10:58;;;;;;;4.10;3.90;;;11.80;99.90;;;;;;5076656;28;21089;-78
2021/05/09 05:13:25;;;;;;;5.00;4.10;;;11.70;99.90;;;;;;5076962;28;20441;-79
2021/05/09 05:15:54;;;;;;;4.57;4.17;;;11.80;99.90;;;;;;5075684;28;20442;-79
2021/05/09 05:18:21;;;;;;;4.20;3.90;;;11.80;99.90;;;;;;5074789;28;20523;-78
2021/05/09 05:20:48;;;;;;;4.30;3.90;;;11.90;99.90;;;;;;5076869;28;20461;-78
2021/05/09 05:23:15;;;;;;;3.93;3.73;;;11.90;99.90;;;;;;5076922;28;20524;-80
2021/05/09 05:25:42;;;;;;;4.07;3.77;;;11.90;99.90;;;;;;5077422;28;20476;-80
2021/05/09 05:28:08;;;;;;;4.40;3.97;;;12.00;99.90;;;;;;5076442;28;20442;-80
2021/05/09 05:30:35;;;;;;;4.87;4.47;;;12.00;99.90;;;;;;5076269;28;20459;-79
2021/05/09 05:33:01;;;;;;;5.13;4.00;;;12.00;99.90;;;;;;5076404;28;20450;-80
2021/05/09 05:35:30;;;;;;;6.47;4.63;;;12.10;99.90;;;;;;5076490;28;20454;-80
2021/05/09 05:37:57;;;;;;;4.50;4.07;;;12.20;99.90;;;;;;5076539;28;20447;-80
2021/05/09 05:40:24;;;;;;;4.30;4.00;;;12.30;99.90;;;;;;5076463;28;20486;-80
2021/05/09 05:42:50;;;;;;;4.70;4.40;;;12.30;99.90;;;;;;5077347;28;20443;-80
2021/05/09 05:45:17;;;;;;;5.13;3.80;;;12.40;99.90;;;;;;5077419;28;20475;-80
2021/05/09 05:47:44;;;;;;;4.13;3.87;;;12.40;99.90;;;;;;5076612;28;20467;-80
2021/05/09 05:50:11;;;;;;;3.53;3.23;;;12.50;99.90;;;;;;5076654;28;20871;-79
2021/05/09 05:52:37;;;;;;;4.10;3.70;;;12.60;99.90;;;;;;5077073;28;20447;-80
2021/05/09 05:55:06;;;;;;;3.07;2.87;;;12.70;99.90;;;;;;5077057;28;20454;-80
2021/05/09 05:57:32;;;;;;;3.70;3.40;;;12.70;99.90;;;;;;5076906;28;20469;-80
2021/05/09 05:59:59;;;;;;;4.00;3.60;;;12.80;99.90;;;;;;5076421;28;20512;-79
2021/05/09 06:02:25;;;;;;;4.00;3.70;;;12.90;99.90;;;;;;5077640;28;20462;-80
2021/05/09 06:04:51;;;;;;;5.03;3.70;;;13.00;99.90;;;;;;5076876;28;20541;-79
2021/05/09 06:07:18;;;;;;;2.80;2.60;;;13.10;99.90;;;;;;5077906;28;20455;-79
2021/05/09 06:09:45;;;;;;;3.83;3.53;;;13.20;99.90;;;;;;5077124;28;20534;-78
2021/05/09 06:12:12;;;;;;;4.57;4.20;;;13.30;99.90;;;;;;5077345;28;20484;-79
2021/05/09 06:14:38;;;;;;;4.00;3.70;;;13.40;99.90;;;;;;5077941;28;20459;-79
2021/05/09 06:17:04;;;;;;;2.83;2.50;;;13.50;99.90;;;;;;5077727;28;20448;-79
2021/05/09 06:19:30;;;;;;;2.60;2.43;;;13.60;99.90;;;;;;5077725;28;20854;-79
2021/05/09 06:21:57;;;;;;;3.67;3.30;;;13.60;99.90;;;;;;5078104;28;20475;-79
2021/05/09 06:24:23;;;;;;;3.20;3.00;;;13.80;99.90;;;;;;5078109;28;20455;-79
2021/05/09 06:26:52;;;;;;;3.37;2.70;;;13.90;99.90;;;;;;5077899;28;20501;-78
2021/05/09 06:29:19;;;;;;;3.07;2.87;;;14.00;99.90;;;;;;5081126;28;20502;-78
2021/05/09 06:31:45;;;;;;;3.70;3.40;;;14.20;99.90;;;;;;5083076;28;20948;-78
2021/05/09 06:34:12;;;;;;;3.17;2.60;;;14.30;99.90;;;;;;5085516;28;20542;-77
2021/05/09 06:36:38;;;;;;;2.60;2.40;;;14.50;99.90;;;;;;5085367;28;20459;-78
2021/05/09 06:39:05;;;;;;;3.27;2.87;;;14.60;99.90;;;;;;5083569;28;20537;-78
2021/05/09 06:41:34;;;;;;;4.33;3.33;;;14.70;99.90;;;;;;5083643;28;20482;-79
2021/05/09 06:44:03;;;;;;;3.77;3.30;;;14.80;99.90;;;;;;5083821;28;20479;-78
2021/05/09 06:46:30;;;;;;;3.80;3.50;;;14.90;99.90;;;;;;5083468;28;20456;-78
2021/05/09 06:48:57;;;;;;;5.63;2.60;;;15.00;99.30;;;;;;5082173;28;20490;-79
2021/05/09 06:51:23;;;;;;;3.43;3.23;;;15.10;99.20;;;;;;5082040;28;20541;-78
2021/05/09 06:53:49;;;;;;;3.13;2.83;;;15.30;99.40;;;;;;5081645;28;20443;-78
2021/05/09 06:56:18;;;;;;;2.90;2.50;;;15.40;99.40;;;;;;5081713;28;20451;-78
2021/05/09 06:58:44;;;;;;;2.43;2.23;;;15.50;99.30;;;;;;5081958;28;20462;-78
2021/05/09 07:01:12;;;;;;;3.27;2.97;;;15.60;99.10;;;;;;5083450;28;20461;-78
2021/05/09 07:03:39;;;;;;;3.07;2.87;;;15.70;99.00;;;;;;5081732;28;20443;-78
2021/05/09 07:06:06;;;;;;;2.37;2.27;;;15.80;98.90;;;;;;5082115;28;20444;-78
2021/05/09 07:08:32;;;;;;;2.70;2.50;;;16.00;99.00;;;;;;5081797;28;20468;-79
2021/05/09 07:10:58;;;;;;;3.20;3.00;;;16.10;99.10;;;;;;5083518;28;20474;-78
2021/05/09 07:13:24;;;;;;;4.37;4.17;;;16.20;98.90;;;;;;5081983;28;20458;-78
2021/05/09 07:15:51;;;;;;;3.50;2.80;;;16.30;98.40;;;;;;5082853;28;20501;-78
2021/05/09 07:18:20;;;;;;;2.53;2.33;;;16.40;98.60;;;;;;5082670;28;20443;-78
2021/05/09 07:20:53;;;;;;;2.47;2.37;;;16.60;98.20;;;;;;5082959;28;20552;-78
2021/05/09 07:23:19;;;;;;;4.90;2.50;;;16.70;98.30;;;;;;5083001;28;20505;-78
2021/05/09 07:25:45;;;;;;;2.83;2.63;;;16.80;98.00;;;;;;5083300;28;20452;-78
2021/05/09 07:28:13;;;;;;;2.47;2.33;;;16.90;97.80;;;;;;5082763;28;20487;-78
2021/05/09 07:30:41;;;;;;;2.77;2.23;;;17.00;97.70;;;;;;5083168;28;20456;-78
2021/05/09 07:33:08;;;;;;;2.93;2.70;;;17.10;97.60;;;;;;5083461;28;20448;-78
2021/05/09 07:35:34;;;;;;;2.90;2.70;;;17.20;97.50;;;;;;5089892;28;20513;-81
2021/05/09 07:38:02;;;;;;;2.33;2.00;;;17.30;97.40;;;;;;5097546;28;20723;-81
2021/05/09 07:45:38;;;;;;;2.00;1.90;;;17.80;96.80;;;;;;5121598;28;20513;-80
2021/05/09 07:48:06;;;;;;;2.40;2.30;;;17.90;96.50;;;;;;5132676;28;20447;-81
2021/05/09 07:50:32;;;;;;;2.80;2.33;;;18.00;96.30;;;;;;5129884;28;20460;-78
2021/05/09 07:52:59;;;;;;;2.63;2.33;;;18.20;96.30;;;;;;5124659;28;20453;-79
2021/05/09 07:55:27;;;;;;;2.63;2.43;;;18.40;96.40;;;;;;5124169;28;20491;-79
2021/05/09 07:57:53;;;;;;;2.20;2.10;;;18.50;96.00;;;;;;5123543;28;20895;-79
2021/05/09 08:00:21;;;;;;;3.13;2.93;;;18.60;95.00;;;;;;5124533;28;20495;-78
2021/05/09 08:02:49;;;;;;;2.33;2.13;;;18.80;95.00;;;;;;5124276;28;20449;-79
2021/05/09 08:05:17;;;;;;;2.97;2.47;;;18.90;95.30;;;;;;5123284;28;20551;-79
2021/05/09 08:07:51;;;;;;;2.33;2.23;;;19.10;93.70;;;;;;5124272;28;20470;-79
2021/05/09 08:10:17;;;;;;;2.70;2.27;;;19.20;94.10;;;;;;5124964;28;20513;-79
2021/05/09 08:12:44;;;;;;;2.30;2.10;;;19.40;94.40;;;;;;5121915;28;20805;-80
2021/05/09 08:15:11;;;;;;;2.07;1.97;;;19.60;93.20;;;;;;5121556;28;20459;-80
2021/05/09 08:17:38;;;;;;;2.20;2.00;;;19.80;92.10;;;;;;5121174;28;20462;-79
2021/05/09 08:20:05;;;;;;;2.23;1.63;;;19.90;91.30;;;;;;5123873;28;20485;-79
2021/05/09 08:22:31;;;;;;;1.73;1.63;;;20.00;90.80;;;;;;5122674;28;20453;-78
2021/05/09 08:24:57;;;;;;;3.60;1.57;;;20.10;90.30;;;;;;5110677;28;20450;-78
2021/05/09 08:27:24;;;;;;;1.40;1.23;;;20.30;89.00;;;;;;5113968;28;20439;-79
2021/05/09 08:29:52;;;;;;;2.07;1.97;;;20.50;89.00;;;;;;5111523;28;20524;-78
2021/05/09 08:32:19;;;;;;;2.33;1.97;;;20.50;89.30;;;;;;5113180;28;20446;-78
2021/05/09 08:34:51;;;;;;;5.63;2.60;;;20.70;89.00;;;;;;5112271;28;20450;-78
2021/05/09 08:37:17;;;;;;;1.50;1.40;;;20.90;88.20;;;;;;5114285;28;20935;-78
2021/05/09 08:39:43;;;;;;;3.03;2.13;;;21.10;86.10;;;;;;5122401;28;20496;-78
2021/05/09 08:42:13;;;;;;;1.60;1.50;;;21.20;87.20;;;;;;5122336;28;20477;-78
2021/05/09 08:44:39;;;;;;;1.70;1.60;;;21.40;88.70;;;;;;5122492;28;20465;-79
2021/05/09 08:47:09;;;;;;;1.70;1.60;;;21.50;86.00;;;;;;5121879;28;20458;-78
2021/05/09 08:49:40;;;;;;;1.70;1.60;;;21.60;85.20;;;;;;5122591;28;20464;-78
2021/05/09 08:52:07;;;;;;;1.60;1.43;;;21.70;82.60;;;;;;5122365;28;20454;-78
2021/05/09 08:54:33;;;;;;;1.40;1.30;;;21.90;82.60;;;;;;5122952;28;20450;-78
2021/05/09 08:57:01;;;;;;;2.33;2.23;;;22.00;81.10;;;;;;5123416;28;20465;-78
2021/05/09 08:59:27;;;;;;;1.80;1.70;;;22.20;79.90;;;;;;5122004;28;20858;-80
2021/05/09 09:01:54;;;;;;;1.90;1.50;;;22.30;76.70;;;;;;5122777;28;20460;-79
2021/05/09 09:04:21;;;;;;;1.80;1.70;;;22.50;77.00;;;;;;5124076;28;20448;-79
2021/05/09 09:06:47;;;;;;;1.60;1.50;;;22.60;77.40;;;;;;5124315;28;20459;-82
2021/05/09 09:16:28;;;;;;;2.83;1.90;;;23.10;74.10;;;;;;5094072;28;20454;-82
2021/05/09 09:19:20;;;;;;;1.97;1.87;;;23.20;72.40;;;;;;5111815;28;20483;-80
2021/05/09 09:21:58;;;;;;;1.70;1.60;;;23.30;73.00;;;;;;5106525;28;20450;-80
2021/05/09 09:24:33;;;;;;;1.20;1.10;;;23.50;72.10;;;;;;5109087;28;20434;-80
2021/05/09 09:27:10;;;;;;;1.43;1.33;;;23.70;71.10;;;;;;5108322;28;20430;-79
2021/05/09 09:33:09;;;;;;;1.73;1.60;;;23.90;67.10;;;;;;5005655;28;20450;-79
2021/05/09 09:35:36;;;;;;;2.13;1.53;;;24.10;67.60;;;;;;5028272;28;20452;-80
2021/05/09 09:38:21;;;;;;;1.80;1.57;;;24.20;66.00;;;;;;5091114;28;20450;-80
2021/05/09 09:41:09;;;;;;;1.70;1.60;;;24.30;67.40;;;;;;5102909;28;20521;-80
2021/05/09 09:43:35;;;;;;;1.60;1.50;;;24.50;64.80;;;;;;5102781;28;20431;-80
2021/05/09 09:46:02;;;;;;;3.40;1.60;;;24.50;59.50;;;;;;5103134;28;20462;-79
2021/05/09 09:48:38;;;;;;;1.50;1.40;;;24.60;59.40;;;;;;5104033;28;20423;-78
2021/05/09 09:51:05;;;;;;;1.57;1.47;;;24.80;57.80;;;;;;5100102;28;20956;-80
2021/05/09 09:53:34;;;;;;;1.53;1.20;;;24.90;57.50;;;;;;5100269;28;20993;-81
2021/05/09 09:56:05;;;;;;;1.33;1.23;;;25.10;55.80;;;;;;5103639;28;20443;-79
2021/05/09 09:58:45;;;;;;;1.00;1.00;;;25.20;54.40;;;;;;5103282;28;20443;-79
2021/05/09 10:01:12;;;;;;;1.30;1.20;;;25.30;54.20;;;;;;5104016;28;20441;-79
2021/05/09 10:03:39;;;;;;;2.40;1.67;;;25.50;53.30;;;;;;5103575;28;20461;-79
2021/05/09 10:06:06;;;;;;;1.60;1.50;;;25.60;53.00;;;;;;5106778;28;20475;-79
2021/05/09 10:08:35;;;;;;;1.53;1.43;;;25.80;52.70;;;;;;5109382;28;20449;-79
2021/05/09 10:11:03;;;;;;;2.60;1.90;;;25.90;53.70;;;;;;5117036;28;20456;-79
2021/05/09 10:13:30;;;;;;;1.50;1.37;;;26.10;52.70;;;;;;5116055;28;21009;-80
2021/05/09 10:15:57;;;;;;;2.03;1.93;;;26.20;51.00;;;;;;5114128;28;20458;-80
2021/05/09 10:18:24;;;;;;;2.93;1.30;;;26.40;49.60;;;;;;5113483;28;20452;-79
2021/05/09 10:20:51;;;;;;;1.27;1.17;;;26.50;50.90;;;;;;5104988;28;20488;-79
2021/05/09 10:23:18;;;;;;;1.20;1.10;;;26.70;49.50;;;;;;5105256;28;20547;-79
2021/05/09 10:25:48;;;;;;;2.10;1.93;;;26.80;49.00;;;;;;5105200;28;20501;-80
2021/05/09 10:28:15;;;;;;;1.60;1.50;;;26.90;48.00;;;;;;5106057;28;20442;-81
2021/05/09 10:30:47;;;;;;;4.50;1.60;;;26.90;48.40;;;;;;5105959;28;20460;-81
2021/05/09 10:33:42;;;;;;;1.23;1.13;;;26.90;48.50;;;;;;5105011;28;20447;-80
2021/05/09 10:36:10;;;;;;;2.13;1.30;;;27.10;47.80;;;;;;5102911;28;20514;-79
2021/05/09 10:39:15;;;;;;;1.07;1.07;;;27.20;47.70;;;;;;5103339;28;20475;-79
2021/05/09 10:42:16;;;;;;;1.30;1.20;;;27.30;47.40;;;;;;5104531;28;20456;-80
2021/05/09 10:44:45;;;;;;;1.37;1.30;;;27.50;47.00;;;;;;5105895;28;20485;-79
2021/05/09 10:47:19;;;;;;;1.57;1.27;;;27.50;46.00;;;;;;5103359;28;20549;-79
2021/05/09 10:50:26;;;;;;;1.40;1.30;;;27.60;46.20;;;;;;5103656;28;20470;-80
2021/05/09 10:52:54;;;;;;;1.17;1.17;;;27.80;45.20;;;;;;5102973;28;20456;-80
2021/05/09 10:55:41;;;;;;;1.10;1.10;;;27.90;45.60;;;;;;5118663;28;20824;-80
2021/05/09 10:58:10;;;;;;;1.47;0.90;;;28.00;43.90;;;;;;5116726;28;20447;-81
2021/05/09 11:01:16;;;;;;;1.57;1.20;;;28.10;43.90;;;;;;5116760;28;20507;-81
2021/05/09 11:03:49;;;;;;;1.83;1.40;;;28.40;44.70;;;;;;5070021;28;20471;-81
2021/05/09 11:06:18;;;;;;;2.57;1.27;;;28.70;45.10;;;;;;5109254;28;20481;-81
2021/05/09 11:08:56;;;;;;;1.30;1.20;;;29.10;44.20;;;;;;5112962;28;20448;-81
2021/05/09 11:11:43;;;;;;;1.37;0.90;;;29.50;43.20;;;;;;5114658;28;20445;-81
2021/05/09 11:14:20;;;;;;;1.37;1.27;;;29.90;41.40;;;;;;5110919;28;20434;-82
2021/05/09 11:16:58;;;;;;;1.53;1.40;;;30.30;40.70;;;;;;5115308;28;20465;-82
2021/05/09 11:19:25;;;;;;;1.20;1.07;;;30.50;40.30;;;;;;5110852;28;20494;-79
2021/05/09 11:21:54;;;;;;;1.23;1.13;;;30.70;38.80;;;;;;5107915;28;20452;-80
2021/05/09 11:24:23;;;;;;;1.57;1.40;;;30.80;40.80;;;;;;5111173;28;20464;-81
2021/05/09 11:26:51;;;;;;;1.20;1.10;;;31.10;40.10;;;;;;5110060;28;21089;-81
2021/05/09 11:29:19;;;;;;;1.00;1.00;;;31.40;37.20;;;;;;5110586;28;20457;-82
2021/05/09 11:31:47;;;;;;;1.73;1.63;;;31.80;36.20;;;;;;5114860;28;20449;-81
2021/05/09 11:34:14;;;;;;;1.67;1.33;;;32.10;36.70;;;;;;5115848;28;20451;-82
2021/05/09 11:36:42;;;;;;;1.10;1.00;;;32.40;35.20;;;;;;5116504;28;20443;-82
2021/05/09 11:39:10;;;;;;;1.37;1.13;;;32.40;34.00;;;;;;5108282;28;20831;-82
2021/05/09 11:41:54;;;;;;;1.40;1.30;;;32.50;35.20;;;;;;5103829;28;20449;-82
2021/05/09 11:44:22;;;;;;;1.23;1.13;;;32.70;33.90;;;;;;5101637;28;20466;-82
2021/05/09 11:46:48;;;;;;;1.93;1.83;;;32.80;34.10;;;;;;5101383;28;20468;-83
2021/05/09 11:49:16;;;;;;;1.63;1.53;;;33.00;33.60;;;;;;5100974;28;20458;-81
2021/05/09 11:51:50;;;;;;;1.60;1.50;;;33.30;33.90;;;;;;5100807;28;20958;-81
2021/05/09 11:54:17;;;;;;;1.90;1.07;;;33.40;33.10;;;;;;5101354;28;20863;-81
2021/05/09 11:56:51;;;;;;;0.97;0.93;;;33.60;34.20;;;;;;5100641;28;20515;-81
2021/05/09 11:59:38;;;;;;;1.10;1.10;;;33.80;32.10;;;;;;5101123;28;20488;-81
2021/05/09 12:02:20;;;;;;;1.37;1.00;;;33.80;32.10;;;;;;5101125;28;20934;-81
2021/05/09 12:04:49;;;;;;;0.83;0.83;;;34.00;31.10;;;;;;5100540;28;20476;-81
2021/05/09 12:07:18;;;;;;;1.53;1.43;;;34.00;30.90;;;;;;5100490;28;20966;-81
2021/05/09 12:09:50;;;;;;;1.53;1.20;;;34.10;32.10;;;;;;5100270;28;20500;-81
2021/05/09 12:12:21;;;;;;;1.80;1.67;;;34.40;33.20;;;;;;5100013;28;20449;-81
2021/05/09 12:14:52;;;;;;;1.53;1.43;;;34.70;32.70;;;;;;5100857;28;20461;-82
2021/05/09 12:17:26;;;;;;;2.87;1.20;;;35.20;31.60;;;;;;5101494;28;20454;-81
2021/05/09 12:19:54;;;;;;;1.00;1.00;;;35.30;30.00;;;;;;5100079;28;20509;-81
2021/05/09 12:22:22;;;;;;;0.90;0.90;;;35.40;29.40;;;;;;5099799;28;20495;-82
2021/05/09 12:24:51;;;;;;;1.57;1.30;;;35.70;31.30;;;;;;5100094;28;20994;-82
2021/05/09 12:27:17;;;;;;;1.57;1.20;;;36.10;28.90;;;;;;5101239;28;20478;-82
2021/05/09 12:29:45;;;;;;;2.00;1.20;;;36.40;29.70;;;;;;5099688;28;20424;-81
2021/05/09 12:32:20;;;;;;;1.40;1.30;;;36.50;28.40;;;;;;5102088;28;20234;-82
2021/05/09 12:35:06;;;;;;;1.70;1.30;;;36.60;28.10;;;;;;5102518;28;20457;-81
2021/05/09 12:37:34;;;;;;;1.33;1.23;;;36.50;27.80;;;;;;5102609;28;20481;-81
2021/05/09 12:40:18;;;;;;;1.60;1.50;;;35.90;27.60;;;;;;5101257;28;20486;-82
2021/05/09 12:42:56;;;;;;;1.30;1.20;;;35.40;28.80;;;;;;5100731;28;20979;-82
2021/05/09 12:45:31;;;;;;;1.17;1.07;;;35.20;28.40;;;;;;5102712;28;20458;-82
2021/05/09 12:48:12;;;;;;;1.00;1.00;;;35.00;28.10;;;;;;5101085;28;20442;-82
2021/05/09 12:50:55;;;;;;;0.90;0.90;;;35.10;28.40;;;;;;5101306;28;20473;-82
2021/05/09 12:53:45;;;;;;;1.10;0.83;;;35.10;28.70;;;;;;5101198;28;20446;-82
2021/05/09 12:56:27;;;;;;;1.10;1.10;;;35.30;29.40;;;;;;5102328;28;20453;-83
2021/05/09 12:59:12;;;;;;;1.50;1.20;;;35.70;28.80;;;;;;5101296;28;20478;-82
2021/05/09 13:01:42;;;;;;;1.40;1.30;;;36.10;28.90;;;;;;5101008;28;20450;-82
2021/05/09 13:04:33;;;;;;;1.30;1.20;;;36.70;28.80;;;;;;5100601;28;20495;-82
2021/05/09 13:07:00;;;;;;;1.50;1.40;;;37.60;27.60;;;;;;5101495;28;20446;-81
2021/05/09 13:09:27;;;;;;;1.20;1.20;;;37.90;26.40;;;;;;5100455;28;20490;-82
2021/05/09 13:11:53;;;;;;;1.17;1.07;;;37.70;26.80;;;;;;5099422;28;21094;-81
2021/05/09 13:14:20;;;;;;;1.63;0.97;;;37.30;27.00;;;;;;5100823;28;20458;-82
2021/05/09 13:16:46;;;;;;;1.10;1.00;;;37.20;26.70;;;;;;5100300;28;20450;-82
2021/05/09 13:19:12;;;;;;;1.00;1.00;;;37.30;27.20;;;;;;5100035;28;20481;-81
2021/05/09 13:21:39;;;;;;;1.37;1.30;;;37.50;26.70;;;;;;5100098;28;20442;-81
2021/05/09 13:24:07;;;;;;;1.53;1.43;;;37.50;26.00;;;;;;5099500;28;20489;-80
2021/05/09 13:26:33;;;;;;;2.60;1.47;;;37.60;26.40;;;;;;5099747;28;20472;-81
2021/05/09 13:29:00;;;;;;;1.30;1.20;;;37.80;26.60;;;;;;5099784;28;20839;-81
2021/05/09 13:31:26;;;;;;;1.40;1.30;;;38.10;26.00;;;;;;5098570;28;20442;-81
2021/05/09 13:33:52;;;;;;;1.90;1.30;;;38.30;25.60;;;;;;5099935;28;20467;-82